Silver Creek, Nebraska
Current Conditions -  °F | °C
As of 8:55 PM on Monday 22 Dec 2014 (Local Time) from KOLU Reporting Station
Overcast Overcast  
Wind Chill: 31°   Ceiling: 2900
Heat Index: 37°   Visibility: 10mi
Dew Point: 30°   Wind: 9mph
Humidity: 75%   Direction: 300°WNW
Pressure: 29.49"   Gusts: NA
Location:  41.31°N, 97.66°W
Report Text: KOLU 230255Z AUTO 30008KT 10SM SCT024 BKN029 OVC047 03/M01 A2949 RMK AO1 52003
Loading
Personal Weather Stations






























Interactive Weather Map New forecast layout! Learn more

10-Day Weather Forecast

Advertisements
Track Severe Weather on mobile